sensor_id;sensor_type;location;lat;lon;timestamp;temperature;humidity
80937;DHT22;70395;51.382;7.074;2024-03-23T00:54:03;10.30;68.10
80937;DHT22;70395;51.382;7.074;2024-03-23T00:56:29;10.20;68.00
80937;DHT22;70395;51.382;7.074;2024-03-23T00:58:55;10.20;68.10
80937;DHT22;70395;51.382;7.074;2024-03-23T01:01:21;10.20;68.20
80937;DHT22;70395;51.382;7.074;2024-03-23T01:03:47;10.20;68.40
80937;DHT22;70395;51.382;7.074;2024-03-23T01:06:13;10.20;68.50
80937;DHT22;70395;51.382;7.074;2024-03-23T01:08:38;10.20;68.50
80937;DHT22;70395;51.382;7.074;2024-03-23T01:11:04;10.20;68.50
80937;DHT22;70395;51.382;7.074;2024-03-23T01:13:30;10.10;68.50
80937;DHT22;70395;51.382;7.074;2024-03-23T01:15:57;10.10;68.40
80937;DHT22;70395;51.382;7.074;2024-03-23T01:18:23;10.10;68.30
80937;DHT22;70395;51.382;7.074;2024-03-23T01:20:51;10.10;68.10
80937;DHT22;70395;51.382;7.074;2024-03-23T01:23:17;10.10;68.00
80937;DHT22;70395;51.382;7.074;2024-03-23T01:25:43;10.10;67.70
80937;DHT22;70395;51.382;7.074;2024-03-23T01:28:09;10.00;67.40
80937;DHT22;70395;51.382;7.074;2024-03-23T01:30:35;10.00;67.30
80937;DHT22;70395;51.382;7.074;2024-03-23T01:33:02;10.00;67.40
80937;DHT22;70395;51.382;7.074;2024-03-23T01:35:28;10.00;67.40
80937;DHT22;70395;51.382;7.074;2024-03-23T01:37:54;10.00;67.30
80937;DHT22;70395;51.382;7.074;2024-03-23T01:40:20;9.90;68.50
80937;DHT22;70395;51.382;7.074;2024-03-23T01:43:03;9.90;68.50
80937;DHT22;70395;51.382;7.074;2024-03-23T01:45:31;9.90;68.80
80937;DHT22;70395;51.382;7.074;2024-03-23T01:47:58;9.90;68.80
80937;DHT22;70395;51.382;7.074;2024-03-23T01:50:24;9.90;69.00
80937;DHT22;70395;51.382;7.074;2024-03-23T01:52:51;9.80;68.40
80937;DHT22;70395;51.382;7.074;2024-03-23T01:55:17;9.80;67.80
80937;DHT22;70395;51.382;7.074;2024-03-23T01:57:43;9.80;67.40
80937;DHT22;70395;51.382;7.074;2024-03-23T02:00:09;9.70;66.90
80937;DHT22;70395;51.382;7.074;2024-03-23T02:02:44;9.70;67.40
80937;DHT22;70395;51.382;7.074;2024-03-23T02:05:11;9.60;67.40
80937;DHT22;70395;51.382;7.074;2024-03-23T02:07:41;9.50;67.70
80937;DHT22;70395;51.382;7.074;2024-03-23T02:10:09;9.50;67.40
80937;DHT22;70395;51.382;7.074;2024-03-23T02:12:36;9.40;66.80
80937;DHT22;70395;51.382;7.074;2024-03-23T02:15:03;9.40;66.90
80937;DHT22;70395;51.382;7.074;2024-03-23T02:17:30;9.30;66.80
80937;DHT22;70395;51.382;7.074;2024-03-23T02:19:59;9.30;67.20
80937;DHT22;70395;51.382;7.074;2024-03-23T02:22:25;9.30;67.50
80937;DHT22;70395;51.382;7.074;2024-03-23T02:28:32;9.20;67.60
80937;DHT22;70395;51.382;7.074;2024-03-23T02:30:58;9.20;67.50
80937;DHT22;70395;51.382;7.074;2024-03-23T02:33:25;9.20;67.70
80937;DHT22;70395;51.382;7.074;2024-03-23T02:35:56;9.10;67.50
80937;DHT22;70395;51.382;7.074;2024-03-23T02:38:23;9.10;67.90
80937;DHT22;70395;51.382;7.074;2024-03-23T02:40:48;9.10;68.20
80937;DHT22;70395;51.382;7.074;2024-03-23T02:43:14;9.10;68.30
80937;DHT22;70395;51.382;7.074;2024-03-23T02:45:40;9.10;68.30
80937;DHT22;70395;51.382;7.074;2024-03-23T02:48:06;9.00;68.40
80937;DHT22;70395;51.382;7.074;2024-03-23T02:50:32;9.00;68.40
80937;DHT22;70395;51.382;7.074;2024-03-23T02:52:58;9.00;68.50
80937;DHT22;70395;51.382;7.074;2024-03-23T02:55:23;9.00;68.70
80937;DHT22;70395;51.382;7.074;2024-03-23T02:57:49;9.00;69.10
80937;DHT22;70395;51.382;7.074;2024-03-23T03:00:15;9.00;68.80
80937;DHT22;70395;51.382;7.074;2024-03-23T03:02:41;9.00;68.50
80937;DHT22;70395;51.382;7.074;2024-03-23T03:05:07;9.00;68.40
80937;DHT22;70395;51.382;7.074;2024-03-23T03:07:34;9.00;68.40
80937;DHT22;70395;51.382;7.074;2024-03-23T03:10:00;9.00;68.30
80937;DHT22;70395;51.382;7.074;2024-03-23T03:12:25;8.90;68.30
80937;DHT22;70395;51.382;7.074;2024-03-23T03:14:52;8.90;68.70
80937;DHT22;70395;51.382;7.074;2024-03-23T03:17:18;8.90;68.10
80937;DHT22;70395;51.382;7.074;2024-03-23T03:19:44;8.90;68.00
80937;DHT22;70395;51.382;7.074;2024-03-23T03:22:11;8.90;68.10
80937;DHT22;70395;51.382;7.074;2024-03-23T03:24:36;8.90;68.20
80937;DHT22;70395;51.382;7.074;2024-03-23T03:27:02;8.90;68.30
80937;DHT22;70395;51.382;7.074;2024-03-23T03:29:29;8.90;68.10
80937;DHT22;70395;51.382;7.074;2024-03-23T03:32:01;8.80;68.10
80937;DHT22;70395;51.382;7.074;2024-03-23T03:34:28;8.80;68.20
80937;DHT22;70395;51.382;7.074;2024-03-23T03:36:54;8.80;68.00
80937;DHT22;70395;51.382;7.074;2024-03-23T03:39:20;8.80;68.10
80937;DHT22;70395;51.382;7.074;2024-03-23T03:41:48;8.80;68.50
80937;DHT22;70395;51.382;7.074;2024-03-23T03:44:14;8.70;68.30
80937;DHT22;70395;51.382;7.074;2024-03-23T03:46:40;8.70;67.90
80937;DHT22;70395;51.382;7.074;2024-03-23T03:49:06;8.70;67.70
80937;DHT22;70395;51.382;7.074;2024-03-23T03:51:31;8.70;67.90
80937;DHT22;70395;51.382;7.074;2024-03-23T03:53:57;8.70;67.80
80937;DHT22;70395;51.382;7.074;2024-03-23T03:56:23;8.70;67.80
80937;DHT22;70395;51.382;7.074;2024-03-23T03:58:49;8.70;68.00
80937;DHT22;70395;51.382;7.074;2024-03-23T04:01:14;8.70;68.30
80937;DHT22;70395;51.382;7.074;2024-03-23T04:03:40;8.70;68.40
80937;DHT22;70395;51.382;7.074;2024-03-23T04:06:12;8.70;68.10
80937;DHT22;70395;51.382;7.074;2024-03-23T04:08:44;8.70;67.60
80937;DHT22;70395;51.382;7.074;2024-03-23T04:11:10;8.70;67.10
80937;DHT22;70395;51.382;7.074;2024-03-23T04:13:36;8.60;67.10
80937;DHT22;70395;51.382;7.074;2024-03-23T04:16:01;8.60;67.30
80937;DHT22;70395;51.382;7.074;2024-03-23T04:18:27;8.60;67.20
80937;DHT22;70395;51.382;7.074;2024-03-23T04:20:53;8.60;67.50
80937;DHT22;70395;51.382;7.074;2024-03-23T04:23:19;8.60;67.50
80937;DHT22;70395;51.382;7.074;2024-03-23T04:25:45;8.60;67.40
80937;DHT22;70395;51.382;7.074;2024-03-23T04:28:11;8.60;67.50
80937;DHT22;70395;51.382;7.074;2024-03-23T04:30:37;8.60;67.60
80937;DHT22;70395;51.382;7.074;2024-03-23T04:33:03;8.50;67.50
80937;DHT22;70395;51.382;7.074;2024-03-23T04:35:30;8.50;67.70
80937;DHT22;70395;51.382;7.074;2024-03-23T04:37:56;8.60;68.00
80937;DHT22;70395;51.382;7.074;2024-03-23T04:40:24;8.60;68.30
80937;DHT22;70395;51.382;7.074;2024-03-23T04:42:51;8.50;68.40
80937;DHT22;70395;51.382;7.074;2024-03-23T04:45:16;8.60;68.50
80937;DHT22;70395;51.382;7.074;2024-03-23T04:47:42;8.60;68.20
80937;DHT22;70395;51.382;7.074;2024-03-23T04:50:08;8.60;67.90
80937;DHT22;70395;51.382;7.074;2024-03-23T04:52:36;8.50;67.70
80937;DHT22;70395;51.382;7.074;2024-03-23T04:55:02;8.50;67.80
80937;DHT22;70395;51.382;7.074;2024-03-23T04:57:28;8.50;67.80
80937;DHT22;70395;51.382;7.074;2024-03-23T04:59:53;8.50;67.80
80937;DHT22;70395;51.382;7.074;2024-03-23T05:02:19;8.50;68.10
80937;DHT22;70395;51.382;7.074;2024-03-23T05:04:45;8.40;68.10
80937;DHT22;70395;51.382;7.074;2024-03-23T05:07:11;8.40;68.30
80937;DHT22;70395;51.382;7.074;2024-03-23T05:09:37;8.40;68.50
80937;DHT22;70395;51.382;7.074;2024-03-23T05:12:03;8.40;68.40
80937;DHT22;70395;51.382;7.074;2024-03-23T05:14:29;8.40;68.80
80937;DHT22;70395;51.382;7.074;2024-03-23T05:16:55;8.40;68.80
80937;DHT22;70395;51.382;7.074;2024-03-23T05:19:21;8.40;69.00
80937;DHT22;70395;51.382;7.074;2024-03-23T05:21:47;8.40;68.90
80937;DHT22;70395;51.382;7.074;2024-03-23T05:24:13;8.40;69.00
80937;DHT22;70395;51.382;7.074;2024-03-23T05:26:39;8.40;69.40
80937;DHT22;70395;51.382;7.074;2024-03-23T05:29:05;8.40;69.70
80937;DHT22;70395;51.382;7.074;2024-03-23T05:31:32;8.40;69.70
80937;DHT22;70395;51.382;7.074;2024-03-23T05:33:58;8.40;69.90
80937;DHT22;70395;51.382;7.074;2024-03-23T05:36:24;8.40;70.10
80937;DHT22;70395;51.382;7.074;2024-03-23T05:38:50;8.40;70.20
80937;DHT22;70395;51.382;7.074;2024-03-23T05:41:16;8.40;70.50
80937;DHT22;70395;51.382;7.074;2024-03-23T05:43:42;8.40;70.50
80937;DHT22;70395;51.382;7.074;2024-03-23T05:46:08;8.40;70.70
80937;DHT22;70395;51.382;7.074;2024-03-23T05:48:34;8.40;70.20
80937;DHT22;70395;51.382;7.074;2024-03-23T05:51:00;8.40;70.30
80937;DHT22;70395;51.382;7.074;2024-03-23T05:53:26;8.40;70.30
80937;DHT22;70395;51.382;7.074;2024-03-23T05:56:00;8.30;70.30
80937;DHT22;70395;51.382;7.074;2024-03-23T05:58:32;8.30;70.50
80937;DHT22;70395;51.382;7.074;2024-03-23T06:00:59;8.40;70.70
80937;DHT22;70395;51.382;7.074;2024-03-23T06:03:27;8.40;71.00
80937;DHT22;70395;51.382;7.074;2024-03-23T06:05:56;8.40;71.00
80937;DHT22;70395;51.382;7.074;2024-03-23T06:08:22;8.40;70.80
80937;DHT22;70395;51.382;7.074;2024-03-23T06:10:49;8.40;71.20
80937;DHT22;70395;51.382;7.074;2024-03-23T06:13:16;8.40;71.20
80937;DHT22;70395;51.382;7.074;2024-03-23T06:15:42;8.50;71.30
80937;DHT22;70395;51.382;7.074;2024-03-23T06:18:08;8.50;71.10
80937;DHT22;70395;51.382;7.074;2024-03-23T06:20:34;8.50;70.90
80937;DHT22;70395;51.382;7.074;2024-03-23T06:23:03;8.50;71.00
80937;DHT22;70395;51.382;7.074;2024-03-23T06:25:29;8.50;71.10
80937;DHT22;70395;51.382;7.074;2024-03-23T06:27:55;8.50;70.80
80937;DHT22;70395;51.382;7.074;2024-03-23T06:30:24;8.50;70.80
80937;DHT22;70395;51.382;7.074;2024-03-23T06:32:49;8.50;70.90
80937;DHT22;70395;51.382;7.074;2024-03-23T06:35:15;8.60;71.20
80937;DHT22;70395;51.382;7.074;2024-03-23T06:37:41;8.60;71.20
80937;DHT22;70395;51.382;7.074;2024-03-23T06:40:08;8.60;71.10
80937;DHT22;70395;51.382;7.074;2024-03-23T06:42:35;8.60;71.10
80937;DHT22;70395;51.382;7.074;2024-03-23T06:45:02;8.60;71.10
80937;DHT22;70395;51.382;7.074;2024-03-23T06:47:30;8.60;71.20
80937;DHT22;70395;51.382;7.074;2024-03-23T06:49:56;8.60;71.20
80937;DHT22;70395;51.382;7.074;2024-03-23T06:52:22;8.70;71.30
80937;DHT22;70395;51.382;7.074;2024-03-23T06:54:48;8.80;71.30
80937;DHT22;70395;51.382;7.074;2024-03-23T06:57:14;8.80;71.10
80937;DHT22;70395;51.382;7.074;2024-03-23T06:59:39;8.90;71.40
80937;DHT22;70395;51.382;7.074;2024-03-23T07:02:06;9.00;71.40
80937;DHT22;70395;51.382;7.074;2024-03-23T07:04:36;9.20;71.60
80937;DHT22;70395;51.382;7.074;2024-03-23T07:07:02;9.40;70.80
80937;DHT22;70395;51.382;7.074;2024-03-23T07:09:28;9.50;70.10
80937;DHT22;70395;51.382;7.074;2024-03-23T07:11:58;9.60;69.60
80937;DHT22;70395;51.382;7.074;2024-03-23T07:14:24;9.80;69.10
80937;DHT22;70395;51.382;7.074;2024-03-23T07:16:50;9.90;69.20
80937;DHT22;70395;51.382;7.074;2024-03-23T07:19:17;9.90;68.80
80937;DHT22;70395;51.382;7.074;2024-03-23T07:21:44;10.10;67.90
80937;DHT22;70395;51.382;7.074;2024-03-23T07:24:10;10.20;67.20
80937;DHT22;70395;51.382;7.074;2024-03-23T07:26:36;10.40;67.70
80937;DHT22;70395;51.382;7.074;2024-03-23T07:29:04;10.70;67.00
80937;DHT22;70395;51.382;7.074;2024-03-23T07:31:31;11.00;66.60
80937;DHT22;70395;51.382;7.074;2024-03-23T07:33:57;11.30;66.20
80937;DHT22;70395;51.382;7.074;2024-03-23T07:36:22;11.60;64.80
80937;DHT22;70395;51.382;7.074;2024-03-23T07:38:48;11.90;63.80
80937;DHT22;70395;51.382;7.074;2024-03-23T07:41:16;12.30;62.80
80937;DHT22;70395;51.382;7.074;2024-03-23T07:43:46;12.50;61.40
80937;DHT22;70395;51.382;7.074;2024-03-23T07:46:15;12.80;62.00
80937;DHT22;70395;51.382;7.074;2024-03-23T07:48:41;13.10;62.00
80937;DHT22;70395;51.382;7.074;2024-03-23T07:51:16;13.40;60.50
80937;DHT22;70395;51.382;7.074;2024-03-23T07:53:44;13.70;59.80
80937;DHT22;70395;51.382;7.074;2024-03-23T07:56:14;14.00;58.30
80937;DHT22;70395;51.382;7.074;2024-03-23T07:58:41;14.20;58.60
80937;DHT22;70395;51.382;7.074;2024-03-23T08:01:13;14.40;56.50
80937;DHT22;70395;51.382;7.074;2024-03-23T08:03:42;14.60;56.80
80937;DHT22;70395;51.382;7.074;2024-03-23T08:08:40;15.00;56.70
80937;DHT22;70395;51.382;7.074;2024-03-23T08:11:08;15.20;57.10
80937;DHT22;70395;51.382;7.074;2024-03-23T08:13:35;15.40;56.20
80937;DHT22;70395;51.382;7.074;2024-03-23T08:16:02;15.70;54.90
80937;DHT22;70395;51.382;7.074;2024-03-23T08:18:30;15.90;55.60
80937;DHT22;70395;51.382;7.074;2024-03-23T08:21:01;16.20;54.20
80937;DHT22;70395;51.382;7.074;2024-03-23T08:23:33;16.30;52.80
80937;DHT22;70395;51.382;7.074;2024-03-23T08:26:03;16.40;52.30
80937;DHT22;70395;51.382;7.074;2024-03-23T08:28:35;16.50;52.30
80937;DHT22;70395;51.382;7.074;2024-03-23T08:31:04;16.60;52.90
80937;DHT22;70395;51.382;7.074;2024-03-23T08:33:33;16.70;51.10
80937;DHT22;70395;51.382;7.074;2024-03-23T08:36:04;16.80;52.20
80937;DHT22;70395;51.382;7.074;2024-03-23T08:38:32;16.90;51.10
80937;DHT22;70395;51.382;7.074;2024-03-23T08:41:06;17.00;50.50
80937;DHT22;70395;51.382;7.074;2024-03-23T08:43:36;17.00;50.70
80937;DHT22;70395;51.382;7.074;2024-03-23T08:46:07;17.20;50.30
80937;DHT22;70395;51.382;7.074;2024-03-23T08:48:36;17.30;50.60
80937;DHT22;70395;51.382;7.074;2024-03-23T08:51:10;17.50;50.30
80937;DHT22;70395;51.382;7.074;2024-03-23T08:53:38;17.70;49.90
80937;DHT22;70395;51.382;7.074;2024-03-23T08:56:05;17.70;49.30
80937;DHT22;70395;51.382;7.074;2024-03-23T08:58:33;17.60;47.80
80937;DHT22;70395;51.382;7.074;2024-03-23T09:01:07;17.20;45.20
80937;DHT22;70395;51.382;7.074;2024-03-23T09:03:33;16.50;44.60
80937;DHT22;70395;51.382;7.074;2024-03-23T09:06:00;15.70;45.00
80937;DHT22;70395;51.382;7.074;2024-03-23T09:08:27;14.90;45.70
80937;DHT22;70395;51.382;7.074;2024-03-23T09:10:53;14.10;47.20
80937;DHT22;70395;51.382;7.074;2024-03-23T09:13:20;13.30;48.30
80937;DHT22;70395;51.382;7.074;2024-03-23T09:15:48;12.60;49.40
80937;DHT22;70395;51.382;7.074;2024-03-23T09:18:15;12.00;50.50
80937;DHT22;70395;51.382;7.074;2024-03-23T09:20:41;11.50;51.80
80937;DHT22;70395;51.382;7.074;2024-03-23T09:23:08;11.10;52.80
80937;DHT22;70395;51.382;7.074;2024-03-23T09:25:37;10.80;53.50
80937;DHT22;70395;51.382;7.074;2024-03-23T09:28:08;10.50;54.70
80937;DHT22;70395;51.382;7.074;2024-03-23T09:30:35;10.30;55.80
80937;DHT22;70395;51.382;7.074;2024-03-23T09:33:08;10.20;56.90
80937;DHT22;70395;51.382;7.074;2024-03-23T09:35:41;10.30;58.80
80937;DHT22;70395;51.382;7.074;2024-03-23T09:38:10;10.70;59.90
80937;DHT22;70395;51.382;7.074;2024-03-23T09:40:42;11.30;60.70
80937;DHT22;70395;51.382;7.074;2024-03-23T09:43:09;12.00;58.80
80937;DHT22;70395;51.382;7.074;2024-03-23T09:45:39;12.80;59.20
80937;DHT22;70395;51.382;7.074;2024-03-23T09:48:08;13.60;58.50
80937;DHT22;70395;51.382;7.074;2024-03-23T09:50:41;14.50;57.00
80937;DHT22;70395;51.382;7.074;2024-03-23T09:53:14;15.30;53.50
80937;DHT22;70395;51.382;7.074;2024-03-23T09:55:41;16.00;53.30
80937;DHT22;70395;51.382;7.074;2024-03-23T09:58:08;16.60;53.20
80937;DHT22;70395;51.382;7.074;2024-03-23T10:00:38;17.20;51.20
80937;DHT22;70395;51.382;7.074;2024-03-23T10:03:04;17.80;50.10
80937;DHT22;70395;51.382;7.074;2024-03-23T10:05:32;18.30;47.60
80937;DHT22;70395;51.382;7.074;2024-03-23T10:10:40;19.10;45.40
80937;DHT22;70395;51.382;7.074;2024-03-23T10:13:06;19.50;45.10
80937;DHT22;70395;51.382;7.074;2024-03-23T10:15:34;19.90;44.80
80937;DHT22;70395;51.382;7.074;2024-03-23T10:18:20;20.20;42.30
80937;DHT22;70395;51.382;7.074;2024-03-23T10:21:08;20.50;41.90
80937;DHT22;70395;51.382;7.074;2024-03-23T10:23:37;20.80;40.00
80937;DHT22;70395;51.382;7.074;2024-03-23T10:26:18;21.00;40.80
80937;DHT22;70395;51.382;7.074;2024-03-23T10:29:00;21.20;39.50
80937;DHT22;70395;51.382;7.074;2024-03-23T10:31:28;21.30;38.30
80937;DHT22;70395;51.382;7.074;2024-03-23T10:33:54;21.40;40.40
80937;DHT22;70395;51.382;7.074;2024-03-23T10:36:21;21.50;39.50
80937;DHT22;70395;51.382;7.074;2024-03-23T10:38:49;21.60;39.40
80937;DHT22;70395;51.382;7.074;2024-03-23T10:41:17;21.70;38.50
80937;DHT22;70395;51.382;7.074;2024-03-23T10:43:46;21.50;37.60
80937;DHT22;70395;51.382;7.074;2024-03-23T10:46:12;21.20;35.80
80937;DHT22;70395;51.382;7.074;2024-03-23T10:48:38;20.60;36.70
80937;DHT22;70395;51.382;7.074;2024-03-23T10:51:08;20.00;37.70
80937;DHT22;70395;51.382;7.074;2024-03-23T10:53:35;19.20;36.50
80937;DHT22;70395;51.382;7.074;2024-03-23T10:56:03;18.50;37.90
80937;DHT22;70395;51.382;7.074;2024-03-23T10:58:44;17.70;39.00
80937;DHT22;70395;51.382;7.074;2024-03-23T11:01:15;16.90;41.30
80937;DHT22;70395;51.382;7.074;2024-03-23T11:03:52;16.20;42.00
80937;DHT22;70395;51.382;7.074;2024-03-23T11:06:35;15.40;42.30
80937;DHT22;70395;51.382;7.074;2024-03-23T11:09:02;14.60;43.30
80937;DHT22;70395;51.382;7.074;2024-03-23T11:11:28;14.00;43.60
80937;DHT22;70395;51.382;7.074;2024-03-23T11:13:58;13.50;44.80
80937;DHT22;70395;51.382;7.074;2024-03-23T11:16:28;13.10;46.10
80937;DHT22;70395;51.382;7.074;2024-03-23T11:19:39;12.80;47.10
80937;DHT22;70395;51.382;7.074;2024-03-23T11:22:05;12.60;48.20
80937;DHT22;70395;51.382;7.074;2024-03-23T11:24:32;12.60;48.80
80937;DHT22;70395;51.382;7.074;2024-03-23T11:26:58;12.60;49.20
80937;DHT22;70395;51.382;7.074;2024-03-23T11:29:29;12.80;49.70
80937;DHT22;70395;51.382;7.074;2024-03-23T11:31:56;13.10;48.90
80937;DHT22;70395;51.382;7.074;2024-03-23T11:34:22;13.30;47.70
80937;DHT22;70395;51.382;7.074;2024-03-23T11:36:48;13.50;48.40
80937;DHT22;70395;51.382;7.074;2024-03-23T11:39:19;13.80;49.10
80937;DHT22;70395;51.382;7.074;2024-03-23T11:41:50;14.30;46.00
80937;DHT22;70395;51.382;7.074;2024-03-23T11:44:21;14.80;44.30
80937;DHT22;70395;51.382;7.074;2024-03-23T11:46:49;15.30;44.90
80937;DHT22;70395;51.382;7.074;2024-03-23T11:49:24;15.80;44.40
80937;DHT22;70395;51.382;7.074;2024-03-23T11:51:53;16.30;44.00
80937;DHT22;70395;51.382;7.074;2024-03-23T11:54:24;16.90;43.30
80937;DHT22;70395;51.382;7.074;2024-03-23T11:59:32;17.70;42.10
80937;DHT22;70395;51.382;7.074;2024-03-23T12:01:59;18.00;40.40
80937;DHT22;70395;51.382;7.074;2024-03-23T12:04:28;18.10;40.00
80937;DHT22;70395;51.382;7.074;2024-03-23T12:07:17;18.20;39.30
80937;DHT22;70395;51.382;7.074;2024-03-23T12:09:45;18.10;39.20
80937;DHT22;70395;51.382;7.074;2024-03-23T12:12:18;17.90;38.90
80937;DHT22;70395;51.382;7.074;2024-03-23T12:14:45;17.50;38.90
80937;DHT22;70395;51.382;7.074;2024-03-23T12:17:26;16.90;39.40
80937;DHT22;70395;51.382;7.074;2024-03-23T12:19:52;16.20;40.00
80937;DHT22;70395;51.382;7.074;2024-03-23T12:22:21;15.50;41.10
80937;DHT22;70395;51.382;7.074;2024-03-23T12:24:48;14.70;41.80
80937;DHT22;70395;51.382;7.074;2024-03-23T12:27:14;14.10;42.90
80937;DHT22;70395;51.382;7.074;2024-03-23T12:29:41;13.50;44.30
80937;DHT22;70395;51.382;7.074;2024-03-23T12:32:09;13.00;45.40
80937;DHT22;70395;51.382;7.074;2024-03-23T12:34:34;12.60;46.10
80937;DHT22;70395;51.382;7.074;2024-03-23T12:37:00;12.50;47.60
80937;DHT22;70395;51.382;7.074;2024-03-23T12:39:27;12.40;48.20
80937;DHT22;70395;51.382;7.074;2024-03-23T12:41:53;12.60;48.90
80937;DHT22;70395;51.382;7.074;2024-03-23T12:44:19;12.90;49.20
80937;DHT22;70395;51.382;7.074;2024-03-23T12:46:45;13.20;48.80
80937;DHT22;70395;51.382;7.074;2024-03-23T12:49:11;13.60;47.70
80937;DHT22;70395;51.382;7.074;2024-03-23T12:51:37;13.90;47.20
80937;DHT22;70395;51.382;7.074;2024-03-23T12:54:03;14.40;47.10
80937;DHT22;70395;51.382;7.074;2024-03-23T12:56:29;14.70;47.00
80937;DHT22;70395;51.382;7.074;2024-03-23T12:58:58;15.20;45.70
80937;DHT22;70395;51.382;7.074;2024-03-23T13:01:24;15.50;44.90
80937;DHT22;70395;51.382;7.074;2024-03-23T13:03:51;15.80;44.60
80937;DHT22;70395;51.382;7.074;2024-03-23T13:06:18;15.90;43.40
80937;DHT22;70395;51.382;7.074;2024-03-23T13:08:45;15.70;44.00
80937;DHT22;70395;51.382;7.074;2024-03-23T13:11:11;15.50;44.40
80937;DHT22;70395;51.382;7.074;2024-03-23T13:13:39;15.10;44.30
80937;DHT22;70395;51.382;7.074;2024-03-23T13:16:07;14.60;45.70
80937;DHT22;70395;51.382;7.074;2024-03-23T13:18:33;14.10;45.80
80937;DHT22;70395;51.382;7.074;2024-03-23T13:21:00;13.60;46.70
80937;DHT22;70395;51.382;7.074;2024-03-23T13:23:26;13.20;48.10
80937;DHT22;70395;51.382;7.074;2024-03-23T13:25:56;13.10;49.20
80937;DHT22;70395;51.382;7.074;2024-03-23T13:28:22;13.30;50.80
80937;DHT22;70395;51.382;7.074;2024-03-23T13:30:55;13.70;50.70
80937;DHT22;70395;51.382;7.074;2024-03-23T13:33:22;14.30;51.80
80937;DHT22;70395;51.382;7.074;2024-03-23T13:35:51;14.90;50.70
80937;DHT22;70395;51.382;7.074;2024-03-23T13:38:18;15.50;49.80
80937;DHT22;70395;51.382;7.074;2024-03-23T13:40:58;15.90;48.50
80937;DHT22;70395;51.382;7.074;2024-03-23T13:43:26;16.30;46.40
80937;DHT22;70395;51.382;7.074;2024-03-23T13:45:55;16.50;45.10
80937;DHT22;70395;51.382;7.074;2024-03-23T13:48:24;16.80;44.30
80937;DHT22;70395;51.382;7.074;2024-03-23T13:50:58;16.90;42.70
80937;DHT22;70395;51.382;7.074;2024-03-23T13:53:24;16.80;41.60
80937;DHT22;70395;51.382;7.074;2024-03-23T13:55:50;16.60;41.90
80937;DHT22;70395;51.382;7.074;2024-03-23T13:58:16;16.30;41.20
80937;DHT22;70395;51.382;7.074;2024-03-23T14:00:42;15.90;41.40
80937;DHT22;70395;51.382;7.074;2024-03-23T14:03:12;15.50;41.90
80937;DHT22;70395;51.382;7.074;2024-03-23T14:05:39;15.20;43.00
80937;DHT22;70395;51.382;7.074;2024-03-23T14:08:07;15.00;44.10
80937;DHT22;70395;51.382;7.074;2024-03-23T14:10:35;15.10;43.70
80937;DHT22;70395;51.382;7.074;2024-03-23T14:13:04;15.30;44.00
80937;DHT22;70395;51.382;7.074;2024-03-23T14:15:30;15.70;44.00
80937;DHT22;70395;51.382;7.074;2024-03-23T14:17:56;16.10;41.00
80937;DHT22;70395;51.382;7.074;2024-03-23T14:20:22;16.40;42.60
80937;DHT22;70395;51.382;7.074;2024-03-23T14:22:49;16.60;39.60
80937;DHT22;70395;51.382;7.074;2024-03-23T14:25:16;16.50;38.80
80937;DHT22;70395;51.382;7.074;2024-03-23T14:27:46;16.40;39.70
80937;DHT22;70395;51.382;7.074;2024-03-23T14:30:12;16.30;39.80
80937;DHT22;70395;51.382;7.074;2024-03-23T14:32:39;16.30;40.60
80937;DHT22;70395;51.382;7.074;2024-03-23T14:35:06;16.30;41.10
80937;DHT22;70395;51.382;7.074;2024-03-23T14:37:34;16.20;38.90
80937;DHT22;70395;51.382;7.074;2024-03-23T14:40:00;15.90;38.20
80937;DHT22;70395;51.382;7.074;2024-03-23T14:42:28;15.60;39.40
80937;DHT22;70395;51.382;7.074;2024-03-23T14:44:54;15.40;40.10
80937;DHT22;70395;51.382;7.074;2024-03-23T14:47:19;15.30;40.80
80937;DHT22;70395;51.382;7.074;2024-03-23T14:49:46;15.30;40.80
80937;DHT22;70395;51.382;7.074;2024-03-23T14:52:15;15.30;40.80
80937;DHT22;70395;51.382;7.074;2024-03-23T14:54:42;15.30;39.90
80937;DHT22;70395;51.382;7.074;2024-03-23T14:57:09;15.30;40.50
80937;DHT22;70395;51.382;7.074;2024-03-23T14:59:35;15.20;40.80
80937;DHT22;70395;51.382;7.074;2024-03-23T15:02:06;15.10;40.70
80937;DHT22;70395;51.382;7.074;2024-03-23T15:04:33;14.90;40.80
80937;DHT22;70395;51.382;7.074;2024-03-23T15:06:59;14.60;41.80
80937;DHT22;70395;51.382;7.074;2024-03-23T15:09:26;14.40;41.50
80937;DHT22;70395;51.382;7.074;2024-03-23T15:11:52;14.20;42.10
80937;DHT22;70395;51.382;7.074;2024-03-23T15:14:20;13.90;43.10
80937;DHT22;70395;51.382;7.074;2024-03-23T15:16:46;13.70;43.50
80937;DHT22;70395;51.382;7.074;2024-03-23T15:19:14;13.40;43.60
80937;DHT22;70395;51.382;7.074;2024-03-23T15:21:45;13.20;43.60
80937;DHT22;70395;51.382;7.074;2024-03-23T15:24:11;13.00;44.00
80937;DHT22;70395;51.382;7.074;2024-03-23T15:26:38;12.90;44.70
80937;DHT22;70395;51.382;7.074;2024-03-23T15:29:04;12.80;45.00
80937;DHT22;70395;51.382;7.074;2024-03-23T15:31:37;12.80;45.40
80937;DHT22;70395;51.382;7.074;2024-03-23T15:34:03;12.90;45.70
80937;DHT22;70395;51.382;7.074;2024-03-23T15:36:30;13.20;45.90
80937;DHT22;70395;51.382;7.074;2024-03-23T15:38:56;13.40;45.70
80937;DHT22;70395;51.382;7.074;2024-03-23T15:41:23;13.70;44.60
80937;DHT22;70395;51.382;7.074;2024-03-23T15:43:50;13.90;44.20
80937;DHT22;70395;51.382;7.074;2024-03-23T15:46:16;14.10;44.40
80937;DHT22;70395;51.382;7.074;2024-03-23T15:48:44;14.40;44.40
80937;DHT22;70395;51.382;7.074;2024-03-23T15:51:12;14.60;43.90
80937;DHT22;70395;51.382;7.074;2024-03-23T15:53:39;14.80;43.80
80937;DHT22;70395;51.382;7.074;2024-03-23T15:56:05;14.90;41.80
80937;DHT22;70395;51.382;7.074;2024-03-23T15:58:32;14.90;41.30
80937;DHT22;70395;51.382;7.074;2024-03-23T16:01:09;14.80;41.40
80937;DHT22;70395;51.382;7.074;2024-03-23T16:03:36;14.70;41.70
80937;DHT22;70395;51.382;7.074;2024-03-23T16:06:04;14.50;40.80
80937;DHT22;70395;51.382;7.074;2024-03-23T16:08:33;14.30;41.10
80937;DHT22;70395;51.382;7.074;2024-03-23T16:13:29;13.80;42.70
80937;DHT22;70395;51.382;7.074;2024-03-23T16:16:02;13.60;42.30
80937;DHT22;70395;51.382;7.074;2024-03-23T16:18:36;13.40;42.50
80937;DHT22;70395;51.382;7.074;2024-03-23T16:21:05;13.10;43.10
80937;DHT22;70395;51.382;7.074;2024-03-23T16:23:33;12.90;43.20
80937;DHT22;70395;51.382;7.074;2024-03-23T16:26:03;12.60;43.50
80937;DHT22;70395;51.382;7.074;2024-03-23T16:28:33;12.50;44.20
80937;DHT22;70395;51.382;7.074;2024-03-23T16:31:02;12.30;44.30
80937;DHT22;70395;51.382;7.074;2024-03-23T16:33:32;12.20;44.60
80937;DHT22;70395;51.382;7.074;2024-03-23T16:36:03;12.10;45.40
80937;DHT22;70395;51.382;7.074;2024-03-23T16:38:31;12.00;45.50
80937;DHT22;70395;51.382;7.074;2024-03-23T16:40:59;11.90;45.80
80937;DHT22;70395;51.382;7.074;2024-03-23T16:43:26;11.90;45.60
80937;DHT22;70395;51.382;7.074;2024-03-23T16:46:00;11.80;45.30
80937;DHT22;70395;51.382;7.074;2024-03-23T16:48:28;11.70;44.90